sensor_id;sensor_type;location;lat;lon;timestamp;pressure;altitude;pressure_sealevel;temperature;humidity
71601;BME280;59446;52.192;4.628;2022-09-29T00:01:54;100018.38;;;17.10;58.05
71601;BME280;59446;52.192;4.628;2022-09-29T00:04:20;100021.94;;;17.09;58.46
71601;BME280;59446;52.192;4.628;2022-09-29T00:06:45;100018.47;;;17.08;58.56
71601;BME280;59446;52.192;4.628;2022-09-29T00:09:10;100015.00;;;17.08;58.24
71601;BME280;59446;52.192;4.628;2022-09-29T00:11:36;100025.53;;;17.08;58.58
71601;BME280;59446;52.192;4.628;2022-09-29T00:14:01;100019.53;;;17.06;58.41
71601;BME280;59446;52.192;4.628;2022-09-29T00:16:27;100015.13;;;17.06;58.35
71601;BME280;59446;52.192;4.628;2022-09-29T00:18:54;100025.75;;;17.05;58.53
71601;BME280;59446;52.192;4.628;2022-09-29T00:21:20;100018.81;;;17.04;58.22
71601;BME280;59446;52.192;4.628;2022-09-29T00:23:46;100023.22;;;17.03;58.70
71601;BME280;59446;52.192;4.628;2022-09-29T00:26:18;100020.59;;;17.03;58.81
71601;BME280;59446;52.192;4.628;2022-09-29T00:28:55;100017.97;;;17.03;58.24
71601;BME280;59446;52.192;4.628;2022-09-29T00:31:23;100016.28;;;17.02;58.15
71601;BME280;59446;52.192;4.628;2022-09-29T00:33:49;100022.50;;;17.01;58.11
71601;BME280;59446;52.192;4.628;2022-09-29T00:36:16;100021.63;;;17.01;58.51
71601;BME280;59446;52.192;4.628;2022-09-29T00:38:43;100019.94;;;17.00;58.45
71601;BME280;59446;52.192;4.628;2022-09-29T00:41:14;100013.72;;;17.01;58.39
71601;BME280;59446;52.192;4.628;2022-09-29T00:44:01;100020.03;;;16.98;58.64
71601;BME280;59446;52.192;4.628;2022-09-29T00:46:56;100024.47;;;16.97;58.67
71601;BME280;59446;52.192;4.628;2022-09-29T00:49:42;100033.28;;;16.96;58.75
71601;BME280;59446;52.192;4.628;2022-09-29T00:52:14;100021.94;;;16.96;58.32
71601;BME280;59446;52.192;4.628;2022-09-29T00:54:50;100021.94;;;16.96;58.55
71601;BME280;59446;52.192;4.628;2022-09-29T00:57:20;100025.50;;;16.95;58.34
71601;BME280;59446;52.192;4.628;2022-09-29T00:59:51;100021.09;;;16.95;58.88
71601;BME280;59446;52.192;4.628;2022-09-29T01:02:19;100029.09;;;16.94;58.78
71601;BME280;59446;52.192;4.628;2022-09-29T01:04:48;100016.88;;;16.93;58.39
71601;BME280;59446;52.192;4.628;2022-09-29T01:07:16;100018.69;;;16.92;58.61
71601;BME280;59446;52.192;4.628;2022-09-29T01:09:44;100020.47;;;16.92;58.81
71601;BME280;59446;52.192;4.628;2022-09-29T01:12:10;100016.03;;;16.92;58.42
71601;BME280;59446;52.192;4.628;2022-09-29T01:14:36;100013.53;;;16.91;58.66
71601;BME280;59446;52.192;4.628;2022-09-29T01:17:03;100013.63;;;16.89;58.45
71601;BME280;59446;52.192;4.628;2022-09-29T01:23:19;100010.16;;;16.89;58.92
71601;BME280;59446;52.192;4.628;2022-09-29T01:26:22;100012.06;;;16.87;58.42
71601;BME280;59446;52.192;4.628;2022-09-29T01:31:45;100019.09;;;16.86;58.83
71601;BME280;59446;52.192;4.628;2022-09-29T01:37:19;100013.09;;;16.84;58.76
71601;BME280;59446;52.192;4.628;2022-09-29T01:40:14;100012.25;;;16.84;58.61
71601;BME280;59446;52.192;4.628;2022-09-29T01:42:54;100019.31;;;16.83;58.32
71601;BME280;59446;52.192;4.628;2022-09-29T01:45:33;100020.16;;;16.84;58.46
71601;BME280;59446;52.192;4.628;2022-09-29T01:48:05;100023.72;;;16.83;58.58
71601;BME280;59446;52.192;4.628;2022-09-29T01:50:36;100019.41;;;16.82;58.67
71601;BME280;59446;52.192;4.628;2022-09-29T01:53:09;100022.03;;;16.82;58.77
71601;BME280;59446;52.192;4.628;2022-09-29T01:55:41;100018.56;;;16.81;58.91
71601;BME280;59446;52.192;4.628;2022-09-29T01:58:13;100015.09;;;16.81;58.40
71601;BME280;59446;52.192;4.628;2022-09-29T02:00:47;100021.31;;;16.80;59.12
71601;BME280;59446;52.192;4.628;2022-09-29T02:05:51;100022.25;;;16.79;58.97
71601;BME280;59446;52.192;4.628;2022-09-29T02:08:28;100019.63;;;16.79;58.65
71601;BME280;59446;52.192;4.628;2022-09-29T02:11:04;100022.34;;;16.77;58.38
71601;BME280;59446;52.192;4.628;2022-09-29T02:13:38;100022.34;;;16.77;58.70
71601;BME280;59446;52.192;4.628;2022-09-29T02:16:08;100026.75;;;16.77;58.98
71601;BME280;59446;52.192;4.628;2022-09-29T02:18:53;100025.91;;;16.76;58.52
71601;BME280;59446;52.192;4.628;2022-09-29T02:21:18;100017.19;;;16.76;58.84
71601;BME280;59446;52.192;4.628;2022-09-29T02:23:44;100020.75;;;16.75;58.70
71601;BME280;59446;52.192;4.628;2022-09-29T02:26:10;100020.75;;;16.75;58.91
71601;BME280;59446;52.192;4.628;2022-09-29T02:28:37;100023.38;;;16.75;58.84
71601;BME280;59446;52.192;4.628;2022-09-29T02:31:03;100026.13;;;16.73;58.87
71601;BME280;59446;52.192;4.628;2022-09-29T02:33:29;100022.66;;;16.73;58.71
71601;BME280;59446;52.192;4.628;2022-09-29T02:41:19;100016.66;;;16.71;58.87
71601;BME280;59446;52.192;4.628;2022-09-29T02:46:55;100022.84;;;16.70;58.82
71601;BME280;59446;52.192;4.628;2022-09-29T02:49:40;100018.53;;;16.69;58.58
71601;BME280;59446;52.192;4.628;2022-09-29T02:52:38;100025.59;;;16.68;58.77
71601;BME280;59446;52.192;4.628;2022-09-29T02:58:38;100021.28;;;16.67;59.21
71601;BME280;59446;52.192;4.628;2022-09-29T03:01:06;100029.28;;;16.65;58.83
71601;BME280;59446;52.192;4.628;2022-09-29T03:03:32;100024.00;;;16.65;59.21
71601;BME280;59446;52.192;4.628;2022-09-29T03:05:58;100023.28;;;16.63;58.78
71601;BME280;59446;52.192;4.628;2022-09-29T03:08:24;100026.75;;;16.64;59.02
71601;BME280;59446;52.192;4.628;2022-09-29T03:10:49;100036.41;;;16.63;59.08
71601;BME280;59446;52.192;4.628;2022-09-29T03:13:15;100027.59;;;16.64;58.65
71601;BME280;59446;52.192;4.628;2022-09-29T03:15:40;100032.00;;;16.64;59.07
71601;BME280;59446;52.192;4.628;2022-09-29T03:18:05;100034.63;;;16.64;58.66
71601;BME280;59446;52.192;4.628;2022-09-29T03:20:32;100040.91;;;16.61;58.82
71601;BME280;59446;52.192;4.628;2022-09-29T03:22:57;100039.13;;;16.62;58.81
71601;BME280;59446;52.192;4.628;2022-09-29T03:25:23;100038.28;;;16.61;58.57
71601;BME280;59446;52.192;4.628;2022-09-29T03:27:49;100037.44;;;16.61;58.99
71601;BME280;59446;52.192;4.628;2022-09-29T03:30:16;100035.75;;;16.60;59.07
71601;BME280;59446;52.192;4.628;2022-09-29T03:32:42;100042.78;;;16.59;58.68
71601;BME280;59446;52.192;4.628;2022-09-29T03:35:09;100042.78;;;16.59;58.94
71601;BME280;59446;52.192;4.628;2022-09-29T03:37:34;100047.31;;;16.57;58.70
71601;BME280;59446;52.192;4.628;2022-09-29T03:40:00;100045.53;;;16.58;58.62
71601;BME280;59446;52.192;4.628;2022-09-29T03:42:25;100049.94;;;16.57;58.88
71601;BME280;59446;52.192;4.628;2022-09-29T03:44:52;100056.97;;;16.57;58.59
71601;BME280;59446;52.192;4.628;2022-09-29T03:47:18;100048.25;;;16.56;58.86
71601;BME280;59446;52.192;4.628;2022-09-29T03:49:43;100049.16;;;16.55;58.70
71601;BME280;59446;52.192;4.628;2022-09-29T03:52:08;100048.31;;;16.55;58.61
71601;BME280;59446;52.192;4.628;2022-09-29T03:54:34;100052.75;;;16.54;59.21
71601;BME280;59446;52.192;4.628;2022-09-29T03:56:59;100055.38;;;16.54;59.04
71601;BME280;59446;52.192;4.628;2022-09-29T03:59:24;100053.69;;;16.53;58.77
71601;BME280;59446;52.192;4.628;2022-09-29T04:01:50;100054.63;;;16.52;59.24
71601;BME280;59446;52.192;4.628;2022-09-29T04:04:15;100054.63;;;16.52;58.74
71601;BME280;59446;52.192;4.628;2022-09-29T04:06:40;100051.16;;;16.52;58.81
71601;BME280;59446;52.192;4.628;2022-09-29T04:09:06;100053.91;;;16.50;58.51
71601;BME280;59446;52.192;4.628;2022-09-29T04:11:31;100054.75;;;16.51;59.03
71601;BME280;59446;52.192;4.628;2022-09-29T04:13:57;100056.53;;;16.50;58.66
71601;BME280;59446;52.192;4.628;2022-09-29T04:16:22;100060.94;;;16.50;58.94
71601;BME280;59446;52.192;4.628;2022-09-29T04:18:47;100062.72;;;16.49;58.69
71601;BME280;59446;52.192;4.628;2022-09-29T04:21:13;100061.03;;;16.48;58.61
71601;BME280;59446;52.192;4.628;2022-09-29T04:23:38;100063.66;;;16.48;59.12
71601;BME280;59446;52.192;4.628;2022-09-29T04:26:04;100066.41;;;16.47;59.00
71601;BME280;59446;52.192;4.628;2022-09-29T04:28:31;100069.88;;;16.47;58.80
71601;BME280;59446;52.192;4.628;2022-09-29T04:30:56;100064.72;;;16.46;58.88
71601;BME280;59446;52.192;4.628;2022-09-29T04:33:22;100075.22;;;16.46;58.89
71601;BME280;59446;52.192;4.628;2022-09-29T04:35:47;100073.53;;;16.45;58.99
71601;BME280;59446;52.192;4.628;2022-09-29T04:38:13;100069.22;;;16.44;59.13
71601;BME280;59446;52.192;4.628;2022-09-29T04:40:38;100077.97;;;16.44;59.28
71601;BME280;59446;52.192;4.628;2022-09-29T04:43:03;100073.66;;;16.43;59.26
71601;BME280;59446;52.192;4.628;2022-09-29T04:45:29;100085.94;;;16.43;58.74
71601;BME280;59446;52.192;4.628;2022-09-29T04:47:54;100080.78;;;16.41;58.67
71601;BME280;59446;52.192;4.628;2022-09-29T04:50:20;100086.03;;;16.41;58.97
71601;BME280;59446;52.192;4.628;2022-09-29T04:52:46;100085.94;;;16.43;59.09
71601;BME280;59446;52.192;4.628;2022-09-29T04:55:12;100089.50;;;16.42;58.91
71601;BME280;59446;52.192;4.628;2022-09-29T04:57:38;100083.41;;;16.41;58.42
71601;BME280;59446;52.192;4.628;2022-09-29T05:00:05;100087.00;;;16.40;58.70
71601;BME280;59446;52.192;4.628;2022-09-29T05:02:33;100089.63;;;16.40;58.58
71601;BME280;59446;52.192;4.628;2022-09-29T05:04:58;100090.56;;;16.39;58.88
71601;BME280;59446;52.192;4.628;2022-09-29T05:07:23;100088.03;;;16.38;59.02
71601;BME280;59446;52.192;4.628;2022-09-29T05:09:49;100096.75;;;16.38;58.45
71601;BME280;59446;52.192;4.628;2022-09-29T05:12:14;100098.53;;;16.38;59.19
71601;BME280;59446;52.192;4.628;2022-09-29T05:14:39;100094.13;;;16.38;58.80
71601;BME280;59446;52.192;4.628;2022-09-29T05:17:05;100108.22;;;16.37;58.71
71601;BME280;59446;52.192;4.628;2022-09-29T05:19:30;100108.22;;;16.37;58.83
71601;BME280;59446;52.192;4.628;2022-09-29T05:21:59;100106.53;;;16.36;58.44
71601;BME280;59446;52.192;4.628;2022-09-29T05:24:25;100112.63;;;16.36;58.92
71601;BME280;59446;52.192;4.628;2022-09-29T05:26:50;100110.94;;;16.35;58.74
71601;BME280;59446;52.192;4.628;2022-09-29T05:29:16;100116.19;;;16.35;58.73
71601;BME280;59446;52.192;4.628;2022-09-29T05:31:41;100115.34;;;16.35;58.97
71601;BME280;59446;52.192;4.628;2022-09-29T05:34:07;100121.53;;;16.34;58.74
71601;BME280;59446;52.192;4.628;2022-09-29T05:36:32;100126.81;;;16.34;58.60
71601;BME280;59446;52.192;4.628;2022-09-29T05:38:58;100120.72;;;16.33;59.20
71601;BME280;59446;52.192;4.628;2022-09-29T05:41:26;100114.56;;;16.33;58.76
71601;BME280;59446;52.192;4.628;2022-09-29T05:43:53;100121.63;;;16.32;58.62
71601;BME280;59446;52.192;4.628;2022-09-29T05:46:19;100131.28;;;16.32;59.20
71601;BME280;59446;52.192;4.628;2022-09-29T05:48:46;100137.47;;;16.31;59.19
71601;BME280;59446;52.192;4.628;2022-09-29T05:51:13;100139.16;;;16.32;58.85
71601;BME280;59446;52.192;4.628;2022-09-29T05:53:40;100141.78;;;16.32;58.42
71601;BME280;59446;52.192;4.628;2022-09-29T05:56:08;100137.47;;;16.31;58.71
71601;BME280;59446;52.192;4.628;2022-09-29T05:58:35;100149.69;;;16.32;58.71
71601;BME280;59446;52.192;4.628;2022-09-29T06:01:04;100141.06;;;16.30;58.73
71601;BME280;59446;52.192;4.628;2022-09-29T06:03:32;100137.59;;;16.29;58.78
71601;BME280;59446;52.192;4.628;2022-09-29T06:05:57;100131.47;;;16.29;58.94
71601;BME280;59446;52.192;4.628;2022-09-29T06:08:22;100138.41;;;16.30;58.50
71601;BME280;59446;52.192;4.628;2022-09-29T06:10:48;100140.22;;;16.29;58.62
71601;BME280;59446;52.192;4.628;2022-09-29T06:13:13;100142.00;;;16.29;59.16
71601;BME280;59446;52.192;4.628;2022-09-29T06:15:38;100148.09;;;16.29;58.65
71601;BME280;59446;52.192;4.628;2022-09-29T06:18:04;100147.25;;;16.29;58.92
71601;BME280;59446;52.192;4.628;2022-09-29T06:20:29;100151.66;;;16.28;58.88
71601;BME280;59446;52.192;4.628;2022-09-29T06:22:57;100154.28;;;16.28;59.03
71601;BME280;59446;52.192;4.628;2022-09-29T06:25:22;100155.13;;;16.29;58.56
71601;BME280;59446;52.192;4.628;2022-09-29T06:27:47;100163.00;;;16.29;58.40
71601;BME280;59446;52.192;4.628;2022-09-29T06:30:13;100161.31;;;16.28;58.29
71601;BME280;59446;52.192;4.628;2022-09-29T06:32:39;100159.53;;;16.28;58.22
71601;BME280;59446;52.192;4.628;2022-09-29T06:35:05;100162.25;;;16.27;58.36
71601;BME280;59446;52.192;4.628;2022-09-29T06:37:50;100164.06;;;16.26;58.25
71601;BME280;59446;52.192;4.628;2022-09-29T06:40:17;100168.47;;;16.26;57.43
71601;BME280;59446;52.192;4.628;2022-09-29T06:42:45;100167.63;;;16.25;57.39
71601;BME280;59446;52.192;4.628;2022-09-29T06:45:10;100165.09;;;16.24;57.23
71601;BME280;59446;52.192;4.628;2022-09-29T06:47:36;100169.41;;;16.25;57.30
71601;BME280;59446;52.192;4.628;2022-09-29T06:50:01;100175.59;;;16.24;57.32
71601;BME280;59446;52.192;4.628;2022-09-29T06:52:27;100179.16;;;16.23;57.08
71601;BME280;59446;52.192;4.628;2022-09-29T06:54:53;100183.47;;;16.24;56.91
71601;BME280;59446;52.192;4.628;2022-09-29T06:57:18;100179.16;;;16.23;57.37
71601;BME280;59446;52.192;4.628;2022-09-29T06:59:44;100183.47;;;16.24;56.93
71601;BME280;59446;52.192;4.628;2022-09-29T07:02:10;100190.50;;;16.23;57.50
71601;BME280;59446;52.192;4.628;2022-09-29T07:04:36;100187.78;;;16.25;57.48
71601;BME280;59446;52.192;4.628;2022-09-29T07:07:01;100187.78;;;16.25;57.59
71601;BME280;59446;52.192;4.628;2022-09-29T07:09:26;100193.88;;;16.25;57.51
71601;BME280;59446;52.192;4.628;2022-09-29T07:11:52;100190.41;;;16.25;57.67
71601;BME280;59446;52.192;4.628;2022-09-29T07:14:19;100189.47;;;16.26;57.70
71601;BME280;59446;52.192;4.628;2022-09-29T07:16:46;100192.00;;;16.27;57.81
71601;BME280;59446;52.192;4.628;2022-09-29T07:19:12;100198.09;;;16.28;58.05
71601;BME280;59446;52.192;4.628;2022-09-29T07:21:38;100199.78;;;16.29;58.34
71601;BME280;59446;52.192;4.628;2022-09-29T07:24:03;100207.56;;;16.30;58.26
71601;BME280;59446;52.192;4.628;2022-09-29T07:26:29;100203.16;;;16.31;58.39
71601;BME280;59446;52.192;4.628;2022-09-29T07:28:55;100204.00;;;16.31;58.45
71601;BME280;59446;52.192;4.628;2022-09-29T07:31:21;100215.34;;;16.32;58.03
71601;BME280;59446;52.192;4.628;2022-09-29T07:33:48;100218.75;;;16.34;58.17
71601;BME280;59446;52.192;4.628;2022-09-29T07:36:16;100220.44;;;16.35;58.00
71601;BME280;59446;52.192;4.628;2022-09-29T07:38:47;100217.81;;;16.35;58.15
71601;BME280;59446;52.192;4.628;2022-09-29T07:41:13;100218.56;;;16.37;58.41
71601;BME280;59446;52.192;4.628;2022-09-29T07:43:39;100222.88;;;16.38;58.54
71601;BME280;59446;52.192;4.628;2022-09-29T07:46:05;100225.41;;;16.40;58.11
71601;BME280;59446;52.192;4.628;2022-09-29T07:48:31;100228.13;;;16.38;58.48
71601;BME280;59446;52.192;4.628;2022-09-29T07:51:15;100226.25;;;16.40;57.67
71601;BME280;59446;52.192;4.628;2022-09-29T07:53:41;100241.63;;;16.46;58.50
71601;BME280;59446;52.192;4.628;2022-09-29T07:56:09;100243.97;;;16.51;58.32
71601;BME280;59446;52.192;4.628;2022-09-29T07:58:36;100245.38;;;16.56;58.47
71601;BME280;59446;52.192;4.628;2022-09-29T08:01:03;100239.00;;;16.60;58.33
71601;BME280;59446;52.192;4.628;2022-09-29T08:03:30;100254.59;;;16.63;57.94
71601;BME280;59446;52.192;4.628;2022-09-29T08:05:56;100253.56;;;16.66;57.81
71601;BME280;59446;52.192;4.628;2022-09-29T08:08:23;100252.41;;;16.70;58.35
71601;BME280;59446;52.192;4.628;2022-09-29T08:10:48;100254.00;;;16.73;58.29
71601;BME280;59446;52.192;4.628;2022-09-29T08:13:14;100262.63;;;16.75;58.03
71601;BME280;59446;52.192;4.628;2022-09-29T08:15:39;100261.69;;;16.76;58.36
71601;BME280;59446;52.192;4.628;2022-09-29T08:18:04;100271.28;;;16.77;58.36
71601;BME280;59446;52.192;4.628;2022-09-29T08:20:30;100269.41;;;16.79;58.19
71601;BME280;59446;52.192;4.628;2022-09-29T08:22:55;100270.16;;;16.81;57.85
71601;BME280;59446;52.192;4.628;2022-09-29T08:25:22;100281.41;;;16.83;57.75
71601;BME280;59446;52.192;4.628;2022-09-29T08:27:50;100286.59;;;16.84;57.79
71601;BME280;59446;52.192;4.628;2022-09-29T08:30:15;100292.47;;;16.88;57.69
71601;BME280;59446;52.192;4.628;2022-09-29T08:32:41;100293.13;;;16.91;57.48
71601;BME280;59446;52.192;4.628;2022-09-29T08:35:06;100293.97;;;16.92;58.07
71601;BME280;59446;52.192;4.628;2022-09-29T08:37:32;100294.72;;;16.94;57.80
71601;BME280;59446;52.192;4.628;2022-09-29T08:39:57;100297.25;;;16.95;57.87
71601;BME280;59446;52.192;4.628;2022-09-29T08:42:41;100305.78;;;16.99;57.29
71601;BME280;59446;52.192;4.628;2022-09-29T08:45:12;100310.03;;;17.02;57.94
71601;BME280;59446;52.192;4.628;2022-09-29T08:47:46;100317.81;;;17.03;57.94
71601;BME280;59446;52.192;4.628;2022-09-29T08:50:29;100315.94;;;17.05;57.59
71601;BME280;59446;52.192;4.628;2022-09-29T08:52:58;100316.78;;;17.06;57.99
71601;BME280;59446;52.192;4.628;2022-09-29T08:55:38;100320.25;;;17.06;57.62
71601;BME280;59446;52.192;4.628;2022-09-29T08:58:10;100322.69;;;17.09;57.88
71601;BME280;59446;52.192;4.628;2022-09-29T09:00:51;100328.78;;;17.10;57.80
71601;BME280;59446;52.192;4.628;2022-09-29T09:03:26;100317.88;;;17.16;57.81
71601;BME280;59446;52.192;4.628;2022-09-29T09:06:18;100320.09;;;17.22;57.43
71601;BME280;59446;52.192;4.628;2022-09-29T09:14:42;100322.25;;;17.30;57.69
71601;BME280;59446;52.192;4.628;2022-09-29T09:26:04;100324.78;;;17.31;57.45
71601;BME280;59446;52.192;4.628;2022-09-29T09:28:36;100319.53;;;17.31;57.37
71601;BME280;59446;52.192;4.628;2022-09-29T09:31:24;100324.78;;;17.31;57.45
71601;BME280;59446;52.192;4.628;2022-09-29T09:33:58;100328.34;;;17.30;57.52
71601;BME280;59446;52.192;4.628;2022-09-29T09:36:38;100326.16;;;17.37;57.33
71601;BME280;59446;52.192;4.628;2022-09-29T09:39:12;100328.69;;;17.38;56.80
71601;BME280;59446;52.192;4.628;2022-09-29T09:41:40;100333.97;;;17.38;57.39
71601;BME280;59446;52.192;4.628;2022-09-29T09:44:17;100329.53;;;17.39;57.42
71601;BME280;59446;52.192;4.628;2022-09-29T09:46:48;100332.06;;;17.40;57.35
71601;BME280;59446;52.192;4.628;2022-09-29T09:49:58;100332.06;;;17.40;57.34
71601;BME280;59446;52.192;4.628;2022-09-29T09:52:24;100337.97;;;17.44;58.00
71601;BME280;59446;52.192;4.628;2022-09-29T09:54:54;100338.28;;;17.39;58.02
71601;BME280;59446;52.192;4.628;2022-09-29T10:00:22;100338.38;;;17.38;58.50
71601;BME280;59446;52.192;4.628;2022-09-29T10:02:51;100336.28;;;17.43;58.94
71601;BME280;59446;52.192;4.628;2022-09-29T10:05:20;100338.44;;;17.50;58.37
71601;BME280;59446;52.192;4.628;2022-09-29T10:07:49;100346.91;;;17.55;58.52
71601;BME280;59446;52.192;4.628;2022-09-29T10:10:18;100338.91;;;17.57;58.81
71601;BME280;59446;52.192;4.628;2022-09-29T10:12:44;100338.81;;;17.58;58.98
71601;BME280;59446;52.192;4.628;2022-09-29T10:15:26;100344.59;;;17.64;59.28
71601;BME280;59446;52.192;4.628;2022-09-29T10:18:02;100343.56;;;17.66;59.15
71601;BME280;59446;52.192;4.628;2022-09-29T10:20:34;100350.34;;;17.70;59.49
71601;BME280;59446;52.192;4.628;2022-09-29T10:26:14;100345.38;;;17.78;59.55
71601;BME280;59446;52.192;4.628;2022-09-29T10:28:46;100353.09;;;17.81;59.33
71601;BME280;59446;52.192;4.628;2022-09-29T10:31:20;100356.25;;;17.86;59.48
71601;BME280;59446;52.192;4.628;2022-09-29T10:33:59;100342.88;;;17.89;59.61
71601;BME280;59446;52.192;4.628;2022-09-29T10:36:32;100353.97;;;17.95;59.67
71601;BME280;59446;52.192;4.628;2022-09-29T10:38:59;100351.13;;;17.98;59.27
71601;BME280;59446;52.192;4.628;2022-09-29T10:41:24;100352.59;;;18.02;59.65
71601;BME280;59446;52.192;4.628;2022-09-29T10:43:50;100355.03;;;18.05;59.72
71601;BME280;59446;52.192;4.628;2022-09-29T10:46:47;100364.50;;;18.07;59.28
71601;BME280;59446;52.192;4.628;2022-09-29T10:49:21;100347.66;;;18.10;59.26
71601;BME280;59446;52.192;4.628;2022-09-29T10:52:22;100348.09;;;18.16;59.15
71601;BME280;59446;52.192;4.628;2022-09-29T10:55:00;100356.41;;;18.23;58.43
71601;BME280;59446;52.192;4.628;2022-09-29T10:57:30;100356.31;;;18.25;58.35
71601;BME280;59446;52.192;4.628;2022-09-29T10:59:57;100353.56;;;18.26;58.04
71601;BME280;59446;52.192;4.628;2022-09-29T11:05:03;100355.69;;;18.21;57.42
71601;BME280;59446;52.192;4.628;2022-09-29T11:07:30;100359.69;;;18.27;57.92
71601;BME280;59446;52.192;4.628;2022-09-29T11:09:57;100368.13;;;18.32;57.74
71601;BME280;59446;52.192;4.628;2022-09-29T11:12:35;100361.78;;;18.34;57.55
71601;BME280;59446;52.192;4.628;2022-09-29T11:15:25;100361.59;;;18.37;57.55
71601;BME280;59446;52.192;4.628;2022-09-29T11:17:51;100361.41;;;18.40;57.53
71601;BME280;59446;52.192;4.628;2022-09-29T11:20:17;100369.97;;;18.44;57.70
71601;BME280;59446;52.192;4.628;2022-09-29T11:25:48;100374.59;;;18.40;58.04
71601;BME280;59446;52.192;4.628;2022-09-29T11:31:06;100376.47;;;18.38;58.03
71601;BME280;59446;52.192;4.628;2022-09-29T11:36:34;100379.50;;;18.32;58.88
71601;BME280;59446;52.192;4.628;2022-09-29T11:41:53;100382.75;;;18.36;58.54
71601;BME280;59446;52.192;4.628;2022-09-29T11:53:01;100380.72;;;18.41;59.40
71601;BME280;59446;52.192;4.628;2022-09-29T12:01:24;100389.25;;;18.44;59.33
71601;BME280;59446;52.192;4.628;2022-09-29T12:04:14;100396.44;;;18.42;59.63
71601;BME280;59446;52.192;4.628;2022-09-29T12:10:37;100403.19;;;18.46;59.17
71601;BME280;59446;52.192;4.628;2022-09-29T12:16:16;100410.25;;;18.46;59.30
71601;BME280;59446;52.192;4.628;2022-09-29T12:18:53;100400.66;;;18.45;59.18
71601;BME280;59446;52.192;4.628;2022-09-29T12:21:48;100404.03;;;18.47;59.49
71601;BME280;59446;52.192;4.628;2022-09-29T12:24:31;100410.13;;;18.47;58.94
71601;BME280;59446;52.192;4.628;2022-09-29T12:26:59;100408.44;;;18.46;59.03
71601;BME280;59446;52.192;4.628;2022-09-29T12:29:29;100411.81;;;18.48;58.77
71601;BME280;59446;52.192;4.628;2022-09-29T12:31:59;100410.25;;;18.46;59.66
71601;BME280;59446;52.192;4.628;2022-09-29T12:40:37;100411.28;;;18.43;58.99
71601;BME280;59446;52.192;4.628;2022-09-29T12:46:03;100418.88;;;18.48;58.33
71601;BME280;59446;52.192;4.628;2022-09-29T12:51:11;100420.34;;;18.52;58.17
71601;BME280;59446;52.192;4.628;2022-09-29T12:53:46;100418.56;;;18.53;58.43
71601;BME280;59446;52.192;4.628;2022-09-29T12:56:55;100415.81;;;18.54;58.27
71601;BME280;59446;52.192;4.628;2022-09-29T12:59:27;100414.88;;;18.55;58.09
71601;BME280;59446;52.192;4.628;2022-09-29T13:01:56;100418.34;;;18.56;58.21
71601;BME280;59446;52.192;4.628;2022-09-29T13:10:11;100416.28;;;18.61;58.03
71601;BME280;59446;52.192;4.628;2022-09-29T13:13:08;100419.66;;;18.63;57.85
71601;BME280;59446;52.192;4.628;2022-09-29T13:16:05;100417.75;;;18.65;57.78
71601;BME280;59446;52.192;4.628;2022-09-29T13:28:56;100425.00;;;18.74;57.85
71601;BME280;59446;52.192;4.628;2022-09-29T13:31:27;100425.00;;;18.74;57.67
71601;BME280;59446;52.192;4.628;2022-09-29T13:33:55;100430.16;;;18.75;58.14
71601;BME280;59446;52.192;4.628;2022-09-29T13:36:27;100428.16;;;18.79;57.56
71601;BME280;59446;52.192;4.628;2022-09-29T13:38:57;100427.09;;;18.82;57.93
71601;BME280;59446;52.192;4.628;2022-09-29T13:41:36;100425.34;;;18.82;57.60
71601;BME280;59446;52.192;4.628;2022-09-29T13:44:18;100429.56;;;18.85;57.76
71601;BME280;59446;52.192;4.628;2022-09-29T13:46:44;100428.50;;;18.87;57.61
71601;BME280;59446;52.192;4.628;2022-09-29T13:49:24;100425.53;;;18.92;57.65
71601;BME280;59446;52.192;4.628;2022-09-29T13:54:38;100430.25;;;18.99;58.00
71601;BME280;59446;52.192;4.628;2022-09-29T13:59:41;100435.66;;;18.98;58.20
71601;BME280;59446;52.192;4.628;2022-09-29T14:02:29;100440.41;;;18.93;58.26
71601;BME280;59446;52.192;4.628;2022-09-29T14:04:57;100439.78;;;18.89;58.29
71601;BME280;59446;52.192;4.628;2022-09-29T14:15:39;100451.72;;;18.82;57.97
71601;BME280;59446;52.192;4.628;2022-09-29T14:18:28;100448.75;;;18.87;57.70
71601;BME280;59446;52.192;4.628;2022-09-29T14:24:01;100455.19;;;18.95;57.43
71601;BME280;59446;52.192;4.628;2022-09-29T14:26:46;100459.28;;;18.99;57.34
71601;BME280;59446;52.192;4.628;2022-09-29T14:29:22;100451.25;;;19.01;57.15
71601;BME280;59446;52.192;4.628;2022-09-29T14:31:51;100456.31;;;19.04;56.87
71601;BME280;59446;52.192;4.628;2022-09-29T14:34:19;100454.53;;;19.04;56.87
71601;BME280;59446;52.192;4.628;2022-09-29T14:36:48;100461.59;;;19.04;56.05
71601;BME280;59446;52.192;4.628;2022-09-29T14:39:16;100462.03;;;19.10;55.82
71601;BME280;59446;52.192;4.628;2022-09-29T14:41:43;100467.22;;;19.12;55.51
71601;BME280;59446;52.192;4.628;2022-09-29T14:44:19;100463.28;;;19.18;55.61
71601;BME280;59446;52.192;4.628;2022-09-29T15:00:26;100477.88;;;19.36;54.69
71601;BME280;59446;52.192;4.628;2022-09-29T15:02:57;100480.41;;;19.37;54.52
71601;BME280;59446;52.192;4.628;2022-09-29T15:05:27;100481.97;;;19.40;54.64
71601;BME280;59446;52.192;4.628;2022-09-29T15:07:53;100492.41;;;19.42;54.46
71601;BME280;59446;52.192;4.628;2022-09-29T15:10:25;100495.78;;;19.44;54.50
71601;BME280;59446;52.192;4.628;2022-09-29T15:12:51;100493.88;;;19.46;55.04
71601;BME280;59446;52.192;4.628;2022-09-29T15:15:29;100496.41;;;19.47;54.80
71601;BME280;59446;52.192;4.628;2022-09-29T15:18:06;100500.75;;;19.48;54.54
71601;BME280;59446;52.192;4.628;2022-09-29T15:21:35;100498.53;;;19.55;54.54
71601;BME280;59446;52.192;4.628;2022-09-29T15:23:55;100501.91;;;19.57;54.65
71601;BME280;59446;52.192;4.628;2022-09-29T15:26:30;100505.38;;;19.57;54.59